Time;durP1;ratioP1;P1;durP2;ratioP2;P2;SDS_P1;SDS_P2;PMS_P1;PMS_P2;Temp;Humidity;BMP_temperature;BMP_pressure;BME280_temperature;BME280_humidity;BME280_pressure;Samples;Min_cycle;Max_cycle;Signal;HPM_P1;HPM_P2
2021/01/11 00:01:06;;;;;;;40.15;19.10;;;-5.70;99.90;;;;;;5080565;28;20044;-71
2021/01/11 00:03:31;;;;;;;38.22;17.90;;;-5.70;99.90;;;;;;5080136;28;20282;-71
2021/01/11 00:05:57;;;;;;;42.90;19.83;;;-5.70;99.90;;;;;;5079128;28;20486;-71
2021/01/11 00:08:23;;;;;;;40.28;19.10;;;-5.70;99.90;;;;;;5080389;28;20077;-71
2021/01/11 00:10:50;;;;;;;40.20;18.80;;;-5.70;99.90;;;;;;5081943;28;20036;-70
2021/01/11 00:13:16;;;;;;;45.00;20.85;;;-5.70;99.90;;;;;;5080358;28;20043;-71
2021/01/11 00:15:41;;;;;;;42.97;19.58;;;-5.70;99.90;;;;;;5070213;28;20021;-71
2021/01/11 00:18:07;;;;;;;42.75;19.75;;;-5.70;99.90;;;;;;5078158;28;20461;-72
2021/01/11 00:20:33;;;;;;;41.58;19.33;;;-5.70;99.90;;;;;;5081164;28;20020;-71
2021/01/11 00:22:58;;;;;;;43.47;19.90;;;-5.70;99.90;;;;;;5080218;28;20502;-72
2021/01/11 00:25:24;;;;;;;47.47;20.38;;;-5.70;99.90;;;;;;5082136;28;20024;-72
2021/01/11 00:27:51;;;;;;;42.17;19.80;;;-5.70;99.90;;;;;;5080651;28;20044;-71
2021/01/11 00:30:17;;;;;;;43.30;18.58;;;-5.80;99.90;;;;;;5077355;28;20029;-71
2021/01/11 00:32:43;;;;;;;41.63;20.17;;;-5.80;99.90;;;;;;5077458;28;20481;-72
2021/01/11 00:35:09;;;;;;;47.60;21.10;;;-5.70;99.90;;;;;;5085963;28;20056;-70
2021/01/11 00:37:35;;;;;;;46.42;20.02;;;-5.70;99.90;;;;;;5083839;28;20016;-71
2021/01/11 00:40:02;;;;;;;44.28;20.42;;;-5.60;99.90;;;;;;5083228;28;20021;-72
2021/01/11 00:42:32;;;;;;;43.35;19.63;;;-5.60;99.90;;;;;;5088091;28;20060;-71
2021/01/11 00:44:58;;;;;;;;;;;-5.60;99.90;;;;;;5083206;28;20437;-71
2021/01/11 00:47:23;;;;;;;40.15;17.50;;;-5.60;99.90;;;;;;5082337;28;19912;-72
2021/01/11 00:49:49;;;;;;;37.97;17.67;;;-5.60;99.90;;;;;;5081021;28;20032;-72
2021/01/11 00:52:15;;;;;;;39.72;18.95;;;-5.70;99.90;;;;;;5081231;28;20094;-72
2021/01/11 00:54:40;;;;;;;45.50;20.60;;;-5.70;99.90;;;;;;5082750;28;20025;-72
2021/01/11 00:57:07;;;;;;;44.03;20.05;;;-5.70;99.90;;;;;;5082158;28;20098;-72
2021/01/11 00:59:33;;;;;;;44.60;19.88;;;-5.70;99.90;;;;;;5082773;28;20028;-71
2021/01/11 01:02:01;;;;;;;43.00;20.98;;;-5.70;99.90;;;;;;5083018;28;20504;-71
2021/01/11 01:04:26;;;;;;;42.28;19.63;;;-5.70;99.90;;;;;;5081835;28;20232;-71
2021/01/11 01:06:52;;;;;;;43.22;20.23;;;-5.70;99.90;;;;;;5081734;28;20123;-72
2021/01/11 01:09:18;;;;;;;46.05;20.35;;;-5.80;99.90;;;;;;5072994;28;20020;-72
2021/01/11 01:11:44;;;;;;;42.28;19.35;;;-5.80;99.90;;;;;;5084383;28;20024;-71
2021/01/11 01:14:10;;;;;;;39.38;19.38;;;-5.80;99.90;;;;;;5073167;28;20086;-70
2021/01/11 01:16:36;;;;;;;46.20;19.67;;;-5.80;99.90;;;;;;5073564;28;20417;-71
2021/01/11 01:19:02;;;;;;;44.22;19.52;;;-5.90;99.90;;;;;;5073628;28;20539;-72
2021/01/11 01:21:28;;;;;;;51.95;23.35;;;-5.90;99.90;;;;;;5073126;28;20024;-72
2021/01/11 01:23:53;;;;;;;43.20;19.83;;;-6.00;99.90;;;;;;5073646;28;20529;-71
2021/01/11 01:26:19;;;;;;;46.05;20.67;;;-6.00;99.90;;;;;;5072617;28;20307;-71
2021/01/11 01:28:45;;;;;;;48.42;22.25;;;-6.00;99.90;;;;;;5073872;28;20427;-71
2021/01/11 01:31:11;;;;;;;45.90;20.90;;;-6.00;99.90;;;;;;5073412;28;20104;-70
2021/01/11 01:33:37;;;;;;;49.45;22.00;;;-6.00;99.90;;;;;;5072128;28;20067;-71
2021/01/11 01:36:03;;;;;;;40.88;19.23;;;-6.00;99.90;;;;;;5073743;28;20083;-71
2021/01/11 01:38:29;;;;;;;40.50;18.42;;;-6.10;99.90;;;;;;5072449;28;20036;-72
2021/01/11 01:40:55;;;;;;;38.65;18.45;;;-6.10;99.90;;;;;;5075204;28;20423;-72
2021/01/11 01:43:21;;;;;;;47.15;19.73;;;-6.20;99.90;;;;;;5092507;28;20040;-71
2021/01/11 01:45:47;;;;;;;42.13;18.73;;;-6.20;99.90;;;;;;5092759;28;20450;-72
2021/01/11 01:48:13;;;;;;;42.20;18.58;;;-6.20;99.90;;;;;;5092879;28;20095;-69
2021/01/11 01:50:40;;;;;;;42.03;18.98;;;-6.30;99.90;;;;;;5093481;28;20048;-73
2021/01/11 01:53:07;;;;;;;38.35;17.55;;;-6.30;99.90;;;;;;5093322;28;20036;-72
2021/01/11 01:55:32;;;;;;;43.58;18.77;;;-6.30;99.90;;;;;;5074346;28;20599;-71
2021/01/11 01:58:03;;;;;;;44.63;18.63;;;-6.30;99.90;;;;;;5093243;28;20024;-71
2021/01/11 02:00:30;;;;;;;42.85;19.17;;;-6.30;99.90;;;;;;5093289;28;20024;-72
2021/01/11 02:02:55;;;;;;;46.40;20.15;;;-6.30;99.90;;;;;;5093472;28;20028;-71
2021/01/11 02:05:21;;;;;;;45.83;19.67;;;-6.30;99.90;;;;;;5092134;28;20084;-71
2021/01/11 02:07:56;;;;;;;49.20;20.02;;;-6.20;99.90;;;;;;5092955;28;20028;-71
2021/01/11 02:10:40;;;;;;;48.95;19.77;;;-6.20;99.90;;;;;;5092385;28;20077;-72
2021/01/11 02:13:27;;;;;;;49.55;19.88;;;-6.20;99.90;;;;;;5073129;28;20032;-72
2021/01/11 02:16:08;;;;;;;41.97;18.30;;;-6.20;99.90;;;;;;5072470;28;20412;-71
2021/01/11 02:18:50;;;;;;;39.20;17.65;;;-6.20;99.90;;;;;;5071639;28;20594;-71
2021/01/11 02:21:49;;;;;;;45.30;20.25;;;-6.30;99.90;;;;;;5053906;28;20032;-70
2021/01/11 02:24:33;;;;;;;46.42;19.67;;;-6.30;99.90;;;;;;5071817;28;20079;-70
2021/01/11 02:27:26;;;;;;;43.30;19.10;;;-6.30;99.90;;;;;;5072480;28;20033;-71
2021/01/11 02:30:10;;;;;;;45.25;19.77;;;-6.30;99.90;;;;;;5072160;28;20090;-72
2021/01/11 02:33:00;;;;;;;44.30;20.63;;;-6.30;99.90;;;;;;5071618;28;20025;-72
2021/01/11 02:35:27;;;;;;;45.80;20.60;;;-6.30;99.90;;;;;;5071716;28;20111;-72
2021/01/11 02:37:53;;;;;;;47.95;19.88;;;-6.40;99.90;;;;;;5072327;28;20037;-72
2021/01/11 02:40:19;;;;;;;44.45;19.65;;;-6.40;99.90;;;;;;5071327;28;20025;-72
2021/01/11 02:42:45;;;;;;;47.97;22.33;;;-6.40;99.90;;;;;;5089080;28;20031;-72
2021/01/11 02:45:11;;;;;;;45.55;20.25;;;-6.40;99.90;;;;;;5092467;28;20028;-71
2021/01/11 02:47:59;;;;;;;47.53;20.70;;;-6.50;99.90;;;;;;5091856;28;20104;-72
2021/01/11 02:50:26;;;;;;;47.15;21.45;;;-6.50;99.90;;;;;;5091287;28;20362;-72
2021/01/11 02:53:04;;;;;;;52.65;21.60;;;-6.50;99.90;;;;;;5092388;28;20028;-72
2021/01/11 02:55:40;;;;;;;55.28;22.30;;;-6.50;99.90;;;;;;5091256;28;20035;-73
2021/01/11 02:58:13;;;;;;;52.35;22.73;;;-6.50;99.90;;;;;;5092084;28;20024;-72
2021/01/11 03:00:42;;;;;;;51.25;21.70;;;-6.40;99.90;;;;;;5091719;28;20039;-72
2021/01/11 03:03:11;;;;;;;51.72;21.45;;;-6.40;99.90;;;;;;5092083;28;20043;-71
2021/01/11 03:05:37;;;;;;;48.50;21.58;;;-6.40;99.90;;;;;;5091162;28;20497;-71
2021/01/11 03:08:04;;;;;;;44.03;20.02;;;-6.40;99.90;;;;;;5073864;28;20476;-71
2021/01/11 03:10:29;;;;;;;44.47;20.25;;;-6.40;99.90;;;;;;5072858;28;20036;-71
2021/01/11 03:12:55;;;;;;;48.63;20.92;;;-6.50;99.90;;;;;;5069844;28;20028;-70
2021/01/11 03:15:21;;;;;;;44.80;19.27;;;-6.50;99.90;;;;;;5070764;28;20028;-70
2021/01/11 03:17:46;;;;;;;43.30;19.15;;;-6.60;99.90;;;;;;5071919;28;20060;-71
2021/01/11 03:20:13;;;;;;;49.78;19.83;;;-6.70;99.90;;;;;;5071457;28;20025;-71
2021/01/11 03:22:39;;;;;;;74.70;28.55;;;-6.70;99.90;;;;;;5070043;28;20516;-71
2021/01/11 03:25:06;;;;;;;66.32;25.65;;;-6.70;99.90;;;;;;5071341;28;20051;-70
2021/01/11 03:27:32;;;;;;;64.10;25.45;;;-6.70;99.90;;;;;;5070668;28;20112;-70
2021/01/11 03:29:59;;;;;;;55.95;22.48;;;-6.60;99.90;;;;;;5071604;28;20032;-71
2021/01/11 03:32:24;;;;;;;50.80;21.23;;;-6.60;99.90;;;;;;5070902;28;20052;-71
2021/01/11 03:34:50;;;;;;;49.60;20.65;;;-6.60;99.90;;;;;;5071504;28;20059;-72
2021/01/11 03:37:17;;;;;;;47.47;21.13;;;-6.60;99.90;;;;;;5071118;28;20036;-70
2021/01/11 03:39:43;;;;;;;43.65;19.30;;;-6.60;99.90;;;;;;5071684;28;20377;-72
2021/01/11 03:42:09;;;;;;;50.85;20.25;;;-6.70;99.90;;;;;;5070908;28;20033;-72
2021/01/11 03:44:34;;;;;;;46.03;19.45;;;-6.70;99.90;;;;;;5070887;28;20609;-72
2021/01/11 03:47:00;;;;;;;51.20;21.48;;;-6.80;99.90;;;;;;5071319;28;20071;-70
2021/01/11 03:49:26;;;;;;;47.55;19.50;;;-6.80;99.90;;;;;;5070498;28;20039;-69
2021/01/11 03:51:51;;;;;;;52.70;21.40;;;-6.90;99.90;;;;;;5071141;28;20025;-71
2021/01/11 03:54:17;;;;;;;60.78;25.27;;;-6.90;99.90;;;;;;5070729;28;20111;-70
2021/01/11 03:56:43;;;;;;;72.35;25.02;;;-6.90;99.90;;;;;;5071444;28;20029;-73
2021/01/11 03:59:08;;;;;;;63.22;24.33;;;-6.80;99.90;;;;;;5071346;28;20028;-72
2021/01/11 04:01:35;;;;;;;57.22;22.98;;;-6.80;99.90;;;;;;5070478;28;20718;-70
2021/01/11 04:04:01;;;;;;;54.95;22.65;;;-6.80;99.90;;;;;;5071465;28;20109;-71
2021/01/11 04:06:26;;;;;;;50.25;20.92;;;-6.80;99.90;;;;;;5080216;28;20076;-70
2021/01/11 04:08:52;;;;;;;49.75;21.15;;;-6.80;99.90;;;;;;5091483;28;20469;-69
2021/01/11 04:11:19;;;;;;;54.95;22.88;;;-6.80;99.90;;;;;;5094674;28;20487;-69
2021/01/11 04:13:45;;;;;;;59.85;24.30;;;-6.80;99.90;;;;;;5095246;28;20043;-71
2021/01/11 04:16:11;;;;;;;54.80;23.38;;;-6.80;99.90;;;;;;5094485;28;20505;-70
2021/01/11 04:18:37;;;;;;;55.72;22.73;;;-6.70;99.90;;;;;;5074631;28;20097;-69
2021/01/11 04:21:03;;;;;;;54.92;24.08;;;-6.70;99.90;;;;;;5093851;28;20389;-70
2021/01/11 04:23:28;;;;;;;53.08;23.05;;;-6.60;99.90;;;;;;5093677;28;20036;-70
2021/01/11 04:25:54;;;;;;;49.38;21.70;;;-6.60;99.90;;;;;;5095035;28;20085;-72
2021/01/11 04:28:20;;;;;;;47.65;21.98;;;-6.60;99.90;;;;;;5094059;28;20077;-70
2021/01/11 04:30:45;;;;;;;54.78;22.27;;;-6.60;99.90;;;;;;5094361;28;20038;-70
2021/01/11 04:33:11;;;;;;;54.33;22.33;;;-6.70;99.90;;;;;;5095045;28;20028;-70
2021/01/11 04:35:37;;;;;;;50.83;22.40;;;-6.70;99.90;;;;;;5094105;28;20268;-71
2021/01/11 04:38:02;;;;;;;53.03;21.88;;;-6.80;99.90;;;;;;5094971;28;20024;-71
2021/01/11 04:40:28;;;;;;;40.85;19.38;;;-6.80;99.90;;;;;;5094021;28;20028;-71
2021/01/11 04:43:04;;;;;;;43.75;19.92;;;-6.80;99.90;;;;;;5094374;28;20503;-70
2021/01/11 04:45:31;;;;;;;43.17;19.08;;;-6.90;99.90;;;;;;5093791;28;20029;-70
2021/01/11 04:47:58;;;;;;;45.00;20.63;;;-7.00;99.90;;;;;;5094744;28;20024;-71
2021/01/11 04:50:25;;;;;;;46.38;20.73;;;-7.00;99.90;;;;;;5093902;28;20124;-71
2021/01/11 04:52:52;;;;;;;45.10;20.45;;;-7.00;99.90;;;;;;5094318;28;20053;-71
2021/01/11 04:55:18;;;;;;;47.05;20.58;;;-7.10;99.90;;;;;;5094062;28;20082;-69
2021/01/11 04:57:54;;;;;;;51.20;21.17;;;-7.10;99.90;;;;;;5094183;28;20032;-70
2021/01/11 05:00:25;;;;;;;50.88;21.23;;;-7.10;99.90;;;;;;5093603;28;20032;-70
2021/01/11 05:02:58;;;;;;;44.88;20.10;;;-7.10;99.90;;;;;;5094374;28;20028;-70
2021/01/11 05:05:25;;;;;;;48.92;20.77;;;-7.10;99.90;;;;;;5093390;28;20035;-69
2021/01/11 05:07:51;;;;;;;53.35;22.55;;;-7.10;99.90;;;;;;5082992;28;20035;-72
2021/01/11 05:10:43;;;;;;;57.10;23.92;;;-7.10;99.90;;;;;;5073994;28;20025;-69
2021/01/11 05:13:10;;;;;;;63.05;25.15;;;-7.10;99.90;;;;;;5069142;28;20056;-70
2021/01/11 05:15:40;;;;;;;53.15;23.13;;;-7.00;99.90;;;;;;5073053;28;20107;-71
2021/01/11 05:18:17;;;;;;;48.50;20.95;;;-7.00;99.90;;;;;;5073921;28;20078;-70
2021/01/11 05:20:43;;;;;;;51.28;21.38;;;-7.00;99.90;;;;;;5072036;28;20028;-70
2021/01/11 05:23:14;;;;;;;50.03;21.75;;;-7.00;99.90;;;;;;5073716;28;20036;-69
2021/01/11 05:25:41;;;;;;;52.70;22.30;;;-7.10;99.90;;;;;;5072694;28;20469;-70
2021/01/11 05:28:19;;;;;;;54.28;22.23;;;-7.10;99.90;;;;;;5073615;28;20033;-70
2021/01/11 05:30:49;;;;;;;51.67;21.90;;;-7.10;99.90;;;;;;5072874;28;20032;-70
2021/01/11 05:33:22;;;;;;;49.80;20.55;;;-7.20;99.90;;;;;;5073969;28;20029;-69
2021/01/11 05:36:06;;;;;;;48.30;21.02;;;-7.20;99.90;;;;;;5073325;28;20029;-69
2021/01/11 05:38:45;;;;;;;44.38;19.10;;;-7.20;99.90;;;;;;5072501;28;20082;-69
2021/01/11 05:41:18;;;;;;;50.63;20.70;;;-7.30;99.90;;;;;;5073578;28;20029;-69
2021/01/11 05:44:11;;;;;;;54.15;22.67;;;-7.40;99.90;;;;;;5072825;28;20128;-70
2021/01/11 05:46:36;;;;;;;53.58;21.63;;;-7.30;99.90;;;;;;5061564;28;20516;-69
2021/01/11 05:49:04;;;;;;;55.78;23.05;;;-7.30;99.90;;;;;;5073313;28;20060;-69
2021/01/11 05:51:31;;;;;;;56.90;22.10;;;-7.30;99.90;;;;;;5072270;28;20418;-69
2021/01/11 05:53:57;;;;;;;49.53;22.20;;;-7.30;99.90;;;;;;5073268;28;20133;-69
2021/01/11 05:56:24;;;;;;;47.13;20.67;;;-7.30;99.90;;;;;;5072180;28;20021;-69
2021/01/11 05:59:03;;;;;;;52.40;21.38;;;-7.40;99.90;;;;;;5073115;28;20482;-69
2021/01/11 06:01:29;;;;;;;;;;;-7.40;99.90;;;;;;5072327;28;20031;-69
2021/01/11 06:03:55;;;;;;;56.72;21.77;;;-7.40;99.90;;;;;;5072645;28;20308;-71
2021/01/11 06:06:21;;;;;;;57.10;22.20;;;-7.40;99.90;;;;;;5072516;28;20098;-69
2021/01/11 06:08:47;;;;;;;58.00;22.27;;;-7.40;99.90;;;;;;5092080;28;20028;-71
2021/01/11 06:11:14;;;;;;;64.88;23.77;;;-7.40;99.90;;;;;;5074988;28;20488;-71
2021/01/11 06:13:45;;;;;;;59.58;23.75;;;-7.40;99.90;;;;;;5092223;28;20047;-70
2021/01/11 06:16:12;;;;;;;57.70;23.75;;;-7.30;99.90;;;;;;5092618;28;20107;-70
2021/01/11 06:18:37;;;;;;;56.03;22.15;;;-7.30;99.90;;;;;;5092121;28;20031;-69
2021/01/11 06:21:03;;;;;;;48.08;19.98;;;-7.30;99.90;;;;;;5092930;28;20024;-70
2021/01/11 06:23:29;;;;;;;51.70;21.95;;;-7.30;99.90;;;;;;5091950;28;20519;-70
2021/01/11 06:25:55;;;;;;;50.60;20.27;;;-7.40;99.90;;;;;;5093186;28;20066;-70
2021/01/11 06:28:35;;;;;;;59.13;22.35;;;-7.40;99.90;;;;;;5092201;28;20032;-71
2021/01/11 06:31:12;;;;;;;53.60;22.00;;;-7.50;99.90;;;;;;5092370;28;20436;-72
2021/01/11 06:33:39;;;;;;;58.97;22.92;;;-7.50;99.90;;;;;;5073249;28;20362;-71
2021/01/11 06:36:22;;;;;;;62.42;24.23;;;-7.50;99.90;;;;;;5092695;28;20076;-70
2021/01/11 06:38:49;;;;;;;65.65;23.67;;;-7.50;99.90;;;;;;5091992;28;20085;-69
2021/01/11 06:41:16;;;;;;;54.40;22.77;;;-7.50;99.90;;;;;;5092452;28;20024;-70
2021/01/11 06:43:50;;;;;;;64.07;24.40;;;-7.50;99.90;;;;;;5091494;28;20623;-69
2021/01/11 06:46:27;;;;;;;60.65;23.58;;;-7.50;99.90;;;;;;5092368;28;20027;-68
2021/01/11 06:48:55;;;;;;;73.82;27.20;;;-7.50;99.90;;;;;;5092259;28;20099;-69
2021/01/11 06:51:32;;;;;;;64.43;25.40;;;-7.40;99.90;;;;;;5092242;28;20024;-68
2021/01/11 06:54:30;;;;;;;59.10;24.08;;;-7.40;99.90;;;;;;5092544;28;20069;-70
2021/01/11 06:57:23;;;;;;;65.45;24.40;;;-7.40;99.90;;;;;;5091750;28;20039;-70
2021/01/11 06:59:54;;;;;;;60.08;23.15;;;-7.30;99.90;;;;;;5092042;28;20020;-71
2021/01/11 07:02:24;;;;;;;69.38;26.27;;;-7.30;99.90;;;;;;5092104;28;20069;-70
2021/01/11 07:04:50;;;;;;;58.85;23.27;;;-7.30;99.90;;;;;;5091566;28;20473;-70
2021/01/11 07:07:18;;;;;;;53.78;22.80;;;-7.30;99.90;;;;;;5085109;28;20508;-71
2021/01/11 07:09:59;;;;;;;61.92;24.10;;;-7.30;99.90;;;;;;5071130;28;20119;-71
2021/01/11 07:12:26;;;;;;;59.53;23.63;;;-7.30;99.90;;;;;;5053411;28;20389;-68
2021/01/11 07:14:58;;;;;;;61.03;24.95;;;-7.30;99.90;;;;;;5071806;28;20028;-70
2021/01/11 07:17:43;;;;;;;58.17;23.80;;;-7.40;99.90;;;;;;5071067;28;20025;-68
2021/01/11 07:20:14;;;;;;;63.03;24.30;;;-7.40;99.90;;;;;;5071717;28;20058;-70
2021/01/11 07:22:41;;;;;;;60.13;24.73;;;-7.30;99.90;;;;;;5071009;28;20101;-77
2021/01/11 07:25:21;;;;;;;61.40;23.33;;;-7.40;99.90;;;;;;5071518;28;20089;-71
2021/01/11 07:27:46;;;;;;;55.65;24.95;;;-7.30;99.90;;;;;;5070964;28;20064;-70
2021/01/11 07:30:13;;;;;;;51.85;21.27;;;-7.30;99.90;;;;;;5071441;28;20059;-70
2021/01/11 07:32:38;;;;;;;51.97;22.90;;;-7.30;99.90;;;;;;5070784;28;20033;-70
2021/01/11 07:35:04;;;;;;;54.55;23.67;;;-7.30;99.90;;;;;;5071245;28;20085;-71
2021/01/11 07:37:30;;;;;;;60.83;24.88;;;-7.20;99.90;;;;;;5071144;28;20033;-70
2021/01/11 07:40:03;;;;;;;60.67;26.42;;;-7.20;99.90;;;;;;5071491;28;20046;-70
2021/01/11 07:42:29;;;;;;;52.90;23.52;;;-7.20;99.90;;;;;;5071036;28;20028;-70
2021/01/11 07:44:54;;;;;;;56.35;23.60;;;-7.20;99.90;;;;;;5072950;28;20037;-70
2021/01/11 07:47:20;;;;;;;54.47;23.60;;;-7.20;99.90;;;;;;5075897;28;20036;-70
2021/01/11 07:49:49;;;;;;;62.20;26.35;;;-7.30;99.90;;;;;;5074288;28;20354;-70
2021/01/11 07:52:18;;;;;;;58.40;24.08;;;-7.30;99.90;;;;;;5075584;28;20343;-71
2021/01/11 07:54:44;;;;;;;56.22;23.60;;;-7.30;99.90;;;;;;5074549;28;20029;-70
2021/01/11 07:57:15;;;;;;;47.55;20.95;;;-7.30;99.90;;;;;;5075379;28;20031;-70
2021/01/11 07:59:41;;;;;;;47.30;20.45;;;-7.30;99.90;;;;;;5074241;28;20032;-70
2021/01/11 08:02:12;;;;;;;48.38;20.27;;;-7.20;99.90;;;;;;5075347;28;20060;-71
2021/01/11 08:04:38;;;;;;;50.92;22.00;;;-7.20;99.90;;;;;;5074160;28;20024;-71
2021/01/11 08:07:11;;;;;;;55.38;21.60;;;-7.20;99.90;;;;;;5075077;28;20052;-71
2021/01/11 08:09:39;;;;;;;52.28;20.00;;;-7.10;99.90;;;;;;5073987;28;20111;-70
2021/01/11 08:12:17;;;;;;;46.38;20.08;;;-7.00;99.90;;;;;;5071603;28;20036;-70
2021/01/11 08:14:47;;;;;;;44.15;19.85;;;-7.00;99.90;;;;;;5073911;28;20071;-70
2021/01/11 08:17:14;;;;;;;47.65;21.00;;;-7.00;99.90;;;;;;5086107;28;20031;-69
2021/01/11 08:19:43;;;;;;;49.15;20.67;;;-7.00;99.90;;;;;;5115002;28;20097;-70
2021/01/11 08:22:10;;;;;;;45.78;21.52;;;-6.90;99.90;;;;;;5115435;28;20032;-70
2021/01/11 08:24:36;;;;;;;48.53;21.90;;;-6.90;99.90;;;;;;5113961;28;20522;-70
2021/01/11 08:27:33;;;;;;;49.03;21.45;;;-6.90;99.90;;;;;;5094141;28;20031;-70
2021/01/11 08:30:09;;;;;;;50.95;21.63;;;-6.90;99.90;;;;;;5074045;28;20028;-69
2021/01/11 08:32:36;;;;;;;46.20;20.33;;;-6.80;99.90;;;;;;5073887;28;20021;-70
2021/01/11 08:35:16;;;;;;;41.00;18.63;;;-6.70;99.90;;;;;;5074194;28;20035;-71
2021/01/11 08:37:43;;;;;;;47.28;21.05;;;-6.60;99.90;;;;;;5073709;28;20028;-69
2021/01/11 08:40:11;;;;;;;47.83;22.20;;;-6.60;99.90;;;;;;5070923;28;20028;-69
2021/01/11 08:42:37;;;;;;;51.92;23.15;;;-6.50;99.90;;;;;;5091387;28;20457;-71
2021/01/11 08:45:38;;;;;;;48.70;22.50;;;-6.40;99.90;;;;;;5081278;28;20048;-69
2021/01/11 08:48:06;;;;;;;46.45;21.67;;;-6.30;99.90;;;;;;5083870;28;20028;-70
2021/01/11 08:50:36;;;;;;;47.47;22.27;;;-6.20;99.90;;;;;;5080875;28;20458;-69
2021/01/11 08:53:30;;;;;;;51.45;21.98;;;-6.10;99.90;;;;;;5082276;28;20028;-71
2021/01/11 08:56:09;;;;;;;45.90;20.70;;;-6.00;99.90;;;;;;5079751;28;20100;-68
2021/01/11 08:58:37;;;;;;;42.22;19.40;;;-5.90;99.90;;;;;;5081647;28;20078;-70
2021/01/11 09:01:22;;;;;;;43.30;20.23;;;-5.80;99.90;;;;;;5082142;28;20036;-70
2021/01/11 09:04:00;;;;;;;40.95;18.80;;;-5.70;99.90;;;;;;5082772;28;20545;-69
2021/01/11 09:06:46;;;;;;;41.50;18.98;;;-5.50;99.90;;;;;;5083444;28;20044;-69
2021/01/11 09:09:19;;;;;;;37.88;17.55;;;-5.40;99.90;;;;;;5084000;28;20027;-70
2021/01/11 09:11:47;;;;;;;40.05;19.35;;;-5.30;99.90;;;;;;5079321;28;20480;-69
2021/01/11 09:14:18;;;;;;;40.92;19.15;;;-5.10;99.90;;;;;;5063398;28;20108;-70
2021/01/11 09:16:45;;;;;;;36.80;18.45;;;-5.00;99.90;;;;;;5081045;28;20058;-70
2021/01/11 09:19:16;;;;;;;39.65;17.40;;;-4.90;99.90;;;;;;5081754;28;20021;-71
2021/01/11 09:21:43;;;;;;;33.83;17.38;;;-4.80;99.90;;;;;;5081196;28;20020;-72
2021/01/11 09:24:13;;;;;;;35.45;17.02;;;-4.70;99.90;;;;;;5083310;28;20449;-71
2021/01/11 09:26:40;;;;;;;35.42;17.60;;;-4.70;99.90;;;;;;5063662;28;20115;-70
2021/01/11 09:29:07;;;;;;;36.05;18.35;;;-4.60;99.90;;;;;;5081247;28;20545;-70
2021/01/11 09:31:33;;;;;;;34.60;16.38;;;-4.50;99.90;;;;;;5081716;28;20020;-70
2021/01/11 09:33:59;;;;;;;32.90;16.58;;;-4.50;99.90;;;;;;5082779;28;20117;-68
2021/01/11 09:36:31;;;;;;;38.58;18.15;;;-4.40;99.90;;;;;;5081498;28;20058;-70
2021/01/11 09:38:57;;;;;;;36.35;17.30;;;-4.30;99.90;;;;;;5082154;28;20051;-71
2021/01/11 09:41:23;;;;;;;36.38;18.35;;;-4.30;99.90;;;;;;5083273;28;20032;-70
2021/01/11 09:43:49;;;;;;;35.72;16.75;;;-4.20;99.90;;;;;;5075180;28;20040;-71
2021/01/11 09:46:15;;;;;;;35.25;18.20;;;-4.10;99.90;;;;;;5081911;28;20497;-70
2021/01/11 09:48:41;;;;;;;35.92;16.75;;;-4.00;99.90;;;;;;5082200;28;20091;-72
2021/01/11 09:51:06;;;;;;;36.00;17.00;;;-3.90;99.90;;;;;;5064833;28;20074;-73
2021/01/11 09:53:32;;;;;;;35.30;16.95;;;-3.80;99.90;;;;;;5082450;28;20465;-70
2021/01/11 09:55:57;;;;;;;32.92;15.35;;;-3.70;99.90;;;;;;5082802;28;20017;-70
2021/01/11 09:58:23;;;;;;;35.10;16.52;;;-3.70;99.90;;;;;;5067061;28;20020;-70
2021/01/11 10:00:49;;;;;;;30.80;15.60;;;-3.60;98.90;;;;;;5079385;28;20472;-71
2021/01/11 10:03:15;;;;;;;36.45;16.63;;;-3.50;95.70;;;;;;5081734;28;20070;-70
2021/01/11 10:05:40;;;;;;;30.58;14.35;;;-3.40;96.40;;;;;;5080132;28;20047;-71
2021/01/11 10:08:06;;;;;;;32.53;16.30;;;-3.40;95.30;;;;;;5081904;28;20043;-69
2021/01/11 10:10:32;;;;;;;30.63;15.45;;;-3.30;94.60;;;;;;5079665;28;20381;-69
2021/01/11 10:12:57;;;;;;;29.85;15.32;;;-3.30;95.20;;;;;;5082529;28;20024;-70
2021/01/11 10:15:23;;;;;;;31.25;15.63;;;-3.20;94.80;;;;;;5082276;28;20033;-70
2021/01/11 10:17:49;;;;;;;31.05;14.90;;;-3.10;95.10;;;;;;5069988;28;20020;-69
2021/01/11 10:20:14;;;;;;;29.13;14.88;;;-3.00;93.90;;;;;;5059841;28;20025;-70
2021/01/11 10:22:41;;;;;;;26.55;13.88;;;-2.90;94.10;;;;;;5080149;28;20055;-68
2021/01/11 10:25:08;;;;;;;30.75;15.65;;;-2.80;94.00;;;;;;5081930;28;20488;-69
2021/01/11 10:27:34;;;;;;;28.48;14.75;;;-2.70;93.70;;;;;;5079919;28;20071;-68
2021/01/11 10:30:01;;;;;;;31.10;15.85;;;-2.60;93.10;;;;;;5080951;28;20058;-69
2021/01/11 10:32:26;;;;;;;27.52;14.07;;;-2.60;93.10;;;;;;5082148;28;20087;-69
2021/01/11 10:34:52;;;;;;;25.23;14.48;;;-2.50;93.30;;;;;;5079551;28;20025;-68
2021/01/11 10:37:18;;;;;;;28.85;14.35;;;-2.40;92.60;;;;;;5076884;28;20111;-69
2021/01/11 10:39:44;;;;;;;28.60;14.60;;;-2.30;92.30;;;;;;5079870;28;20052;-69
2021/01/11 10:42:10;;;;;;;29.38;14.10;;;-2.30;90.90;;;;;;5062843;28;20452;-69
2021/01/11 10:44:35;;;;;;;35.00;14.85;;;-2.20;88.40;;;;;;5080554;28;20029;-71
2021/01/11 10:47:02;;;;;;;30.15;15.52;;;-2.20;89.90;;;;;;5081369;28;20396;-67
2021/01/11 10:49:28;;;;;;;32.67;15.63;;;-2.10;89.50;;;;;;5079053;28;20028;-67
2021/01/11 10:51:56;;;;;;;32.58;17.10;;;-2.00;88.80;;;;;;5077317;28;20453;-69
2021/01/11 10:54:25;;;;;;;37.20;17.75;;;-2.00;87.50;;;;;;5075571;28;20051;-68
2021/01/11 10:56:52;;;;;;;34.05;17.02;;;-1.90;87.80;;;;;;5068534;28;20369;-70
2021/01/11 10:59:19;;;;;;;31.38;16.10;;;-1.90;89.40;;;;;;5080928;28;20067;-71
2021/01/11 11:01:47;;;;;;;28.52;15.40;;;-1.90;90.00;;;;;;5079077;28;20503;-69
2021/01/11 11:04:13;;;;;;;33.00;14.68;;;-1.80;90.20;;;;;;5081730;28;20024;-70
2021/01/11 11:06:38;;;;;;;23.85;12.70;;;-1.80;89.40;;;;;;5078869;28;20829;-69
2021/01/11 11:09:04;;;;;;;25.95;13.63;;;-1.80;88.50;;;;;;5063420;28;20036;-72
2021/01/11 11:11:30;;;;;;;23.98;12.05;;;-1.80;86.90;;;;;;5081703;28;20451;-70
2021/01/11 11:13:56;;;;;;;27.88;13.13;;;-1.80;87.60;;;;;;5062810;28;20063;-73
2021/01/11 11:16:22;;;;;;;28.65;14.40;;;-1.80;87.50;;;;;;5075460;28;20020;-69
2021/01/11 11:18:47;;;;;;;29.30;14.63;;;-1.80;87.10;;;;;;5080080;28;20183;-69
2021/01/11 11:21:14;;;;;;;25.92;13.55;;;-1.80;87.10;;;;;;5079907;28;20107;-72
2021/01/11 11:23:40;;;;;;;28.08;12.95;;;-1.80;88.00;;;;;;5079876;28;20067;-69
2021/01/11 11:26:07;;;;;;;24.60;13.30;;;-1.70;88.60;;;;;;5081320;28;20032;-69
2021/01/11 11:28:34;;;;;;;24.45;13.07;;;-1.70;88.20;;;;;;5078656;28;20389;-73
2021/01/11 11:31:00;;;;;;;34.10;15.40;;;-1.60;87.40;;;;;;5080566;28;20020;-69
2021/01/11 11:33:26;;;;;;;32.22;15.02;;;-1.50;87.20;;;;;;5081148;28;20435;-70
2021/01/11 11:35:52;;;;;;;30.52;13.48;;;-1.50;86.40;;;;;;5078658;28;20074;-70
2021/01/11 11:38:19;;;;;;;22.05;12.30;;;-1.40;86.10;;;;;;5079993;28;20115;-70
2021/01/11 11:40:44;;;;;;;27.95;12.80;;;-1.40;83.80;;;;;;5078406;28;20017;-69
2021/01/11 11:43:10;;;;;;;22.08;12.30;;;-1.30;82.20;;;;;;5063760;28;20428;-69
2021/01/11 11:45:36;;;;;;;32.30;13.52;;;-1.30;82.40;;;;;;5087442;28;20028;-70
2021/01/11 11:48:02;;;;;;;30.27;11.73;;;-1.20;80.70;;;;;;5096252;28;20059;-69
2021/01/11 11:50:27;;;;;;;24.65;12.30;;;-1.10;79.60;;;;;;5110882;28;20020;-70
2021/01/11 11:52:53;;;;;;;32.22;13.30;;;-1.10;79.00;;;;;;5092964;28;20484;-68
2021/01/11 11:55:19;;;;;;;27.58;12.05;;;-1.00;78.30;;;;;;5112178;28;20032;-72
2021/01/11 11:57:45;;;;;;;25.48;11.75;;;-1.00;78.40;;;;;;5111576;28;20030;-70
2021/01/11 12:00:16;;;;;;;23.10;12.55;;;-1.00;78.60;;;;;;5112369;28;20031;-72
2021/01/11 12:02:43;;;;;;;26.40;12.68;;;-1.00;77.50;;;;;;5110607;28;20079;-75
2021/01/11 12:05:10;;;;;;;22.25;11.48;;;-1.00;78.20;;;;;;5111829;28;20036;-73
2021/01/11 12:07:36;;;;;;;22.27;12.30;;;-1.00;78.60;;;;;;5075511;28;20043;-73
2021/01/11 12:10:03;;;;;;;24.15;12.00;;;-1.00;78.30;;;;;;5111260;28;20024;-71
2021/01/11 12:12:29;;;;;;;21.10;11.55;;;-0.90;77.70;;;;;;5077866;28;20036;-73
2021/01/11 12:14:55;;;;;;;20.80;11.60;;;-1.00;77.70;;;;;;5070456;28;20102;-70
2021/01/11 12:17:21;;;;;;;23.73;11.77;;;-0.90;77.30;;;;;;5070983;28;20563;-72
2021/01/11 12:19:46;;;;;;;22.23;11.23;;;-0.90;77.50;;;;;;5068742;28;21593;-72
2021/01/11 12:22:12;;;;;;;21.13;11.95;;;-0.90;77.60;;;;;;5079037;28;20028;-73
2021/01/11 12:24:38;;;;;;;23.75;12.70;;;-0.90;78.00;;;;;;5089586;28;20032;-72
2021/01/11 12:27:04;;;;;;;24.85;12.15;;;-0.80;78.10;;;;;;5073310;28;20028;-75
2021/01/11 12:29:31;;;;;;;24.98;11.85;;;-0.80;77.20;;;;;;5090697;28;20024;-72
2021/01/11 12:31:56;;;;;;;20.52;11.13;;;-0.80;77.90;;;;;;5094300;28;20034;-71
2021/01/11 12:34:22;;;;;;;24.05;11.75;;;-0.70;78.00;;;;;;5094727;28;20115;-70
2021/01/11 12:36:48;;;;;;;19.27;10.95;;;-0.70;77.50;;;;;;5093748;28;20016;-70